Time;durP1;ratioP1;P1;durP2;ratioP2;P2;SDS_P1;SDS_P2;PMS_P1;PMS_P2;Temp;Humidity;BMP_temperature;BMP_pressure;BME280_temperature;BME280_humidity;BME280_pressure;Samples;Min_cycle;Max_cycle;Signal;HPM_P1;HPM_P2
2024/03/05 03:39:49;;;;;;;30.10;18.67;;;;;;;10.51;59.13;94534.25;6183890;23;20035;-87
2024/03/05 05:13:40;;;;;;;48.35;24.05;;;;;;;10.27;62.76;94585.66;6250924;22;20028;-87
2024/03/05 05:16:11;;;;;;;51.28;24.33;;;;;;;10.26;62.79;94589.28;6250056;22;20011;-88
2024/03/05 05:39:01;;;;;;;60.67;26.60;;;;;;;10.30;62.61;94605.25;6244441;22;20023;-86
2024/03/05 05:41:29;;;;;;;66.97;27.50;;;;;;;10.26;62.62;94593.66;6218600;23;20039;-86
2024/03/05 05:43:54;;;;;;;84.90;29.95;;;;;;;10.15;63.11;94603.59;6170049;23;20099;-86
2024/03/05 05:51:30;;;;;;;62.90;27.25;;;;;;;10.13;63.32;94609.97;6226934;22;20023;-86
2024/03/05 05:53:55;;;;;;;92.68;30.00;;;;;;;10.05;63.50;94617.88;6249072;22;20004;-86
2024/03/05 05:56:21;;;;;;;89.72;30.80;;;;;;;10.10;63.54;94610.34;6223773;22;20034;-87
2024/03/05 05:58:46;;;;;;;76.32;29.48;;;;;;;10.17;63.09;94616.41;6223932;22;20080;-87
2024/03/05 06:06:19;;;;;;;77.75;29.58;;;;;;;9.98;64.28;94623.84;6274868;22;20046;-87
2024/03/05 06:08:46;;;;;;;66.13;26.90;;;;;;;9.89;64.41;94611.19;6249106;22;20054;-87
2024/03/05 06:11:14;;;;;;;65.75;27.02;;;;;;;9.88;64.49;94619.97;6275457;22;20019;-87
2024/03/05 06:13:40;;;;;;;49.30;24.15;;;;;;;10.12;63.50;94618.75;6248613;22;20003;-86
2024/03/05 06:16:08;;;;;;;70.57;28.42;;;;;;;10.30;62.96;94636.44;6223503;22;20011;-86
2024/03/05 06:18:33;;;;;;;94.15;30.10;;;;;;;10.14;63.82;94627.94;6223840;22;20007;-85
2024/03/05 06:26:13;;;;;;;112.85;30.02;;;;;;;10.09;63.54;94640.72;6274832;22;20035;-86
2024/03/05 06:28:38;;;;;;;79.70;25.83;;;;;;;9.99;64.49;94645.44;6223280;22;20015;-87
2024/03/05 06:31:08;;;;;;;116.22;28.75;;;;;;;10.26;63.34;94643.84;6166857;23;20009;-86
2024/03/05 06:33:34;;;;;;;51.63;24.05;;;;;;;10.02;64.12;94642.47;6169480;23;20086;-86
2024/03/05 06:38:35;;;;;;;189.18;31.25;;;;;;;10.08;64.00;94644.31;6226576;22;20046;-86
2024/03/05 06:43:36;;;;;;;96.68;29.08;;;;;;;9.96;64.52;94651.81;6234196;22;20029;-86
2024/03/05 06:46:02;;;;;;;63.00;26.58;;;;;;;10.17;63.38;94656.16;6243401;23;20008;-87
2024/03/05 06:48:30;;;;;;;200.65;29.17;;;;;;;10.23;64.01;94667.59;6243407;23;20009;-86
2024/03/05 06:51:00;;;;;;;140.35;28.73;;;;;;;10.19;63.94;94668.97;6193789;23;20012;-86
2024/03/05 07:03:56;;;;;;;58.75;24.35;;;;;;;10.06;64.70;94679.28;6244079;22;20027;-85
2024/03/05 07:06:25;;;;;;;48.42;22.40;;;;;;;10.22;64.00;94684.19;6168312;23;20012;-86
2024/03/05 07:08:54;;;;;;;44.05;21.45;;;;;;;9.99;64.54;94676.59;6192565;23;20019;-86
2024/03/05 07:11:25;;;;;;;45.17;22.15;;;;;;;10.14;63.94;94682.53;6217628;23;20018;-87
2024/03/05 07:13:51;;;;;;;48.33;21.77;;;;;;;10.09;64.41;94676.28;6217842;23;20043;-86
2024/03/05 07:21:19;;;;;;;41.25;20.90;;;;;;;10.06;64.50;94689.66;6252027;22;20050;-86
2024/03/05 07:26:12;;;;;;;45.10;20.77;;;;;;;10.14;63.64;94679.94;6274014;22;20030;-86
2024/03/05 07:28:40;;;;;;;39.70;19.27;;;;;;;10.21;63.50;94684.41;6223164;22;20031;-86
2024/03/05 07:33:32;;;;;;;41.40;22.15;;;;;;;10.20;63.71;94687.97;6275068;22;20075;-86
2024/03/05 07:36:01;;;;;;;49.63;21.88;;;;;;;10.00;64.03;94675.63;6247895;22;19999;-86
2024/03/05 07:38:27;;;;;;;43.92;21.10;;;;;;;10.10;63.37;94672.72;6223497;22;20018;-86
2024/03/05 07:45:52;;;;;;;41.83;19.60;;;;;;;10.04;63.69;94683.84;6274074;22;20027;-86
2024/03/05 07:48:21;;;;;;;40.20;20.02;;;;;;;10.15;63.20;94688.53;6247783;22;20018;-86
2024/03/05 07:50:48;;;;;;;45.83;20.10;;;;;;;9.85;64.14;94678.28;6247563;22;20007;-87
2024/03/05 07:55:41;;;;;;;37.85;18.08;;;;;;;9.98;62.60;94680.22;6276684;22;20028;-86
2024/03/05 07:58:07;;;;;;;35.25;17.90;;;;;;;9.93;62.79;94679.94;6222563;22;20007;-87
2024/03/05 08:00:33;;;;;;;37.90;18.55;;;;;;;9.84;63.17;94694.06;6248124;22;20013;-86
2024/03/05 08:05:25;;;;;;;39.40;19.60;;;;;;;9.77;63.48;94694.00;6212145;22;20075;-86
2024/03/05 08:08:02;;;;;;;36.05;18.80;;;;;;;9.88;63.26;94695.28;6187041;23;20083;-87
2024/03/05 08:10:28;;;;;;;39.38;20.02;;;;;;;9.78;63.71;94690.41;6213433;23;20032;-86
2024/03/05 08:15:30;;;;;;;40.00;19.25;;;;;;;10.00;63.73;94703.41;6275211;22;20015;-86
2024/03/05 08:17:56;;;;;;;36.35;19.00;;;;;;;9.88;64.14;94695.28;6223238;22;20114;-87
2024/03/05 08:20:26;;;;;;;43.28;21.17;;;;;;;10.03;63.59;94690.81;6206124;22;20007;-87
2024/03/05 08:25:18;;;;;;;49.08;21.27;;;;;;;10.06;63.57;94708.66;6273612;22;20032;-87
2024/03/05 08:43:03;;;;;;;71.57;26.27;;;;;;;10.26;63.37;94731.41;6273622;22;20023;-87
2024/03/05 08:50:30;;;;;;;70.97;26.55;;;;;;;10.13;63.78;94727.72;6271789;22;20260;-86
2024/03/05 08:52:55;;;;;;;82.28;27.10;;;;;;;10.04;64.62;94735.81;6191995;23;20012;-87
2024/03/05 08:55:21;;;;;;;113.65;27.23;;;;;;;10.34;63.24;94736.50;6192090;23;20077;-86
2024/03/05 08:57:46;;;;;;;70.70;25.67;;;;;;;9.98;64.36;94726.97;6192159;23;20079;-85
2024/03/05 09:05:16;;;;;;;63.15;24.75;;;;;;;10.20;63.54;94740.75;6246939;22;20917;-87
2024/03/05 09:07:42;;;;;;;48.80;22.92;;;;;;;10.03;64.53;94745.38;6247107;22;20007;-86
2024/03/05 09:15:12;;;;;;;42.22;21.27;;;;;;;10.15;64.00;94751.72;6274035;22;20027;-87
2024/03/05 09:17:37;;;;;;;51.72;23.33;;;;;;;10.24;63.59;94746.38;6224820;22;20018;-86
2024/03/05 09:27:40;;;;;;;48.67;21.58;;;;;;;10.25;63.38;94754.00;6275007;22;20027;-86
2024/03/05 09:30:08;;;;;;;42.53;20.90;;;;;;;10.35;63.25;94761.50;6249612;22;20019;-87
2024/03/05 09:32:34;;;;;;;44.90;21.90;;;;;;;10.63;62.34;94769.34;6249639;22;19995;-86
2024/03/05 09:35:05;;;;;;;53.17;22.15;;;;;;;10.31;63.51;94763.66;6199004;22;20030;-86
2024/03/05 09:37:31;;;;;;;42.65;21.52;;;;;;;10.26;63.65;94765.19;6225408;22;20022;-86
2024/03/05 09:39:56;;;;;;;35.63;19.42;;;;;;;10.34;62.29;94760.72;6223930;22;20008;-86
2024/03/05 09:42:22;;;;;;;45.13;20.98;;;;;;;10.48;62.50;94774.63;6248819;22;20003;-86
2024/03/05 09:59:59;;;;;;;26.48;15.60;;;;;;;10.41;61.92;94788.56;6275361;22;20016;-86
2024/03/05 10:02:26;;;;;;;19.33;12.90;;;;;;;10.62;60.90;94785.13;6248737;22;20014;-86
2024/03/05 10:10:07;;;;;;;23.17;13.82;;;;;;;10.94;59.36;94794.16;6244419;23;20028;-86
2024/03/05 10:17:50;;;;;;;24.10;14.40;;;;;;;10.80;59.82;94798.47;6274203;22;20016;-86
2024/03/05 10:20:33;;;;;;;27.30;16.70;;;;;;;10.78;60.28;94800.47;6243612;23;20016;-86
2024/03/05 10:33:16;;;;;;;22.70;13.50;;;;;;;10.65;59.65;94800.38;6243969;22;20131;-86
2024/03/05 10:35:49;;;;;;;24.67;14.55;;;;;;;10.23;61.25;94788.97;6193559;23;20020;-86
2024/03/05 10:38:17;;;;;;;22.20;13.43;;;;;;;10.36;60.26;94781.31;6218477;23;20007;-85
2024/03/05 10:45:44;;;;;;;24.85;13.95;;;;;;;10.60;59.45;94782.69;6259006;22;20257;-86
2024/03/05 10:53:16;;;;;;;22.20;12.65;;;;;;;9.91;60.64;94783.25;6276686;22;20024;-85
2024/03/05 10:55:43;;;;;;;17.75;11.75;;;;;;;9.79;59.61;94769.94;6223564;22;20008;-86
2024/03/05 11:00:41;;;;;;;18.35;11.63;;;;;;;9.43;61.48;94781.09;6248121;22;20051;-87
2024/03/05 11:03:08;;;;;;;17.15;11.20;;;;;;;9.68;60.93;94786.00;6248011;22;20009;-87
2024/03/05 11:05:50;;;;;;;17.77;11.25;;;;;;;9.64;61.55;94776.97;6248316;22;20011;-87
2024/03/05 11:08:24;;;;;;;19.58;12.02;;;;;;;9.74;61.68;94769.69;6248725;22;20099;-87
2024/03/05 11:11:02;;;;;;;15.32;9.85;;;;;;;9.75;59.06;94769.50;6248375;22;20026;-86
2024/03/05 11:16:06;;;;;;;14.88;10.10;;;;;;;9.65;58.88;94766.38;6274245;22;20026;-86
2024/03/05 11:18:34;;;;;;;16.27;10.10;;;;;;;9.47;60.23;94768.56;6248180;22;20016;-86
2024/03/05 11:21:11;;;;;;;15.27;9.57;;;;;;;9.65;58.24;94757.78;6248169;22;20005;-86
2024/03/05 11:23:41;;;;;;;16.02;9.88;;;;;;;10.00;58.84;94766.56;6273867;22;20043;-87
2024/03/05 11:28:35;;;;;;;14.00;8.65;;;;;;;10.30;57.25;94750.81;6273882;22;20015;-86
2024/03/05 11:31:16;;;;;;;12.77;9.00;;;;;;;10.35;58.57;94762.28;6274201;22;20019;-86
2024/03/05 11:34:05;;;;;;;13.30;8.32;;;;;;;10.28;57.67;94765.81;6247896;22;20012;-87
2024/03/05 11:36:35;;;;;;;15.23;10.20;;;;;;;10.33;59.38;94763.50;6273947;22;19999;-87
2024/03/05 11:39:03;;;;;;;9.48;7.00;;;;;;;10.58;55.04;94763.88;6223595;22;20006;-87
2024/03/05 11:41:37;;;;;;;11.25;7.60;;;;;;;10.33;56.93;94756.47;6248321;22;20053;-86
2024/03/05 11:44:03;;;;;;;10.70;7.05;;;;;;;10.61;56.20;94765.31;6273621;22;20008;-86
2024/03/05 11:49:09;;;;;;;10.20;7.35;;;;;;;10.52;55.93;94759.44;6274093;22;20027;-86
2024/03/05 11:51:40;;;;;;;11.75;7.65;;;;;;;10.54;55.79;94753.06;6198174;22;20003;-86
2024/03/05 11:54:08;;;;;;;10.70;7.50;;;;;;;10.54;55.96;94760.84;6248363;22;20007;-86
2024/03/05 11:56:35;;;;;;;11.50;7.55;;;;;;;10.57;55.74;94751.91;6273604;22;20103;-86
2024/03/05 11:59:00;;;;;;;10.05;7.20;;;;;;;10.48;55.47;94740.81;6222918;22;20027;-86
2024/03/05 12:01:29;;;;;;;9.40;7.05;;;;;;;10.67;57.05;94739.34;6247669;22;20008;-86
2024/03/05 12:04:07;;;;;;;8.43;6.35;;;;;;;10.88;55.45;94738.47;6223520;22;20015;-86
2024/03/05 12:06:36;;;;;;;8.60;6.65;;;;;;;11.01;54.38;94750.78;6222363;22;20018;-86
2024/03/05 12:11:36;;;;;;;8.75;6.38;;;;;;;10.98;54.80;94742.53;6274774;22;20023;-86
2024/03/05 12:14:08;;;;;;;8.85;6.50;;;;;;;10.72;54.42;94739.59;6273828;22;20020;-87
2024/03/05 12:21:36;;;;;;;9.20;5.85;;;;;;;10.86;55.18;94740.47;6274316;22;20027;-86
2024/03/05 12:34:16;;;;;;;5.88;4.53;;;;;;;10.70;54.39;94727.75;6273930;22;20020;-86
2024/03/05 12:36:42;;;;;;;7.82;5.35;;;;;;;10.70;55.34;94738.16;6223489;22;20076;-86
2024/03/05 12:39:10;;;;;;;6.60;4.88;;;;;;;10.69;56.35;94728.75;6197191;22;20012;-86
2024/03/05 12:41:38;;;;;;;7.15;5.25;;;;;;;10.50;56.90;94718.03;6198563;22;20012;-86
2024/03/05 12:49:06;;;;;;;5.40;4.00;;;;;;;10.29;55.31;94726.63;6272862;22;20024;-86
2024/03/05 12:51:35;;;;;;;4.95;3.58;;;;;;;10.72;54.02;94729.19;6224526;22;20018;-86
2024/03/05 12:54:05;;;;;;;5.50;3.67;;;;;;;10.65;54.21;94727.53;6224382;22;20008;-86
2024/03/05 12:56:40;;;;;;;5.23;4.03;;;;;;;10.22;56.09;94717.97;6250296;22;20010;-86
2024/03/05 13:01:30;;;;;;;5.28;4.13;;;;;;;10.66;54.88;94723.94;6276549;22;20024;-86
2024/03/05 13:03:56;;;;;;;5.53;3.75;;;;;;;10.06;54.06;94724.25;6199255;22;20018;-87
2024/03/05 13:06:21;;;;;;;5.53;3.83;;;;;;;9.91;55.75;94711.31;6248823;22;20003;-86
2024/03/05 13:14:07;;;;;;;5.20;3.92;;;;;;;10.44;55.39;94713.59;6276555;22;20019;-86
2024/03/05 13:16:33;;;;;;;4.65;3.65;;;;;;;10.61;55.92;94701.09;6249451;22;20032;-86
2024/03/05 13:18:59;;;;;;;4.80;3.88;;;;;;;10.41;54.77;94698.34;6249397;22;20011;-87
2024/03/05 13:21:24;;;;;;;5.28;4.00;;;;;;;10.37;55.03;94703.13;6199418;22;20045;-86
2024/03/05 13:23:50;;;;;;;6.15;4.25;;;;;;;10.12;56.12;94705.28;6199186;22;20058;-86
2024/03/05 13:28:40;;;;;;;6.00;4.33;;;;;;;10.63;54.95;94717.31;6276187;22;20024;-87
2024/03/05 13:33:34;;;;;;;6.43;4.93;;;;;;;10.53;56.92;94727.25;6275052;22;20023;-86
2024/03/05 13:38:25;;;;;;;6.78;4.50;;;;;;;10.46;55.51;94721.19;6189028;23;20025;-86
2024/03/05 13:40:52;;;;;;;5.38;4.20;;;;;;;10.62;56.39;94727.91;6134580;23;20012;-86
2024/03/05 13:43:22;;;;;;;6.97;4.40;;;;;;;10.60;57.74;94719.50;6158944;23;20096;-86
2024/03/05 13:45:48;;;;;;;6.60;4.50;;;;;;;11.02;57.20;94726.34;6159214;23;20016;-87
2024/03/05 13:48:14;;;;;;;6.53;4.80;;;;;;;10.88;57.54;94729.88;6134744;23;20247;-87
2024/03/05 13:55:54;;;;;;;6.82;5.22;;;;;;;10.87;57.98;94739.50;6217917;23;20030;-86
2024/03/05 13:58:23;;;;;;;5.65;4.72;;;;;;;10.68;57.68;94727.13;6194082;23;20015;-86
2024/03/05 14:00:48;;;;;;;6.13;4.40;;;;;;;10.68;58.22;94732.34;6218713;23;20004;-87
2024/03/05 14:03:17;;;;;;;5.47;4.20;;;;;;;10.51;58.53;94732.66;6193291;23;20022;-86
2024/03/05 14:05:42;;;;;;;4.90;3.90;;;;;;;10.46;58.46;94740.19;6169410;23;20020;-88
2024/03/05 14:10:34;;;;;;;8.35;4.40;;;;;;;10.41;59.40;94739.16;6246014;22;20019;-87
2024/03/05 14:13:06;;;;;;;5.50;4.05;;;;;;;10.35;59.82;94730.31;6168712;23;20019;-86
2024/03/05 14:15:32;;;;;;;5.35;4.00;;;;;;;10.46;59.23;94735.00;6218830;23;20043;-86
2024/03/05 14:17:58;;;;;;;6.00;3.92;;;;;;;10.28;59.90;94738.03;6182240;23;20056;-86
2024/03/05 14:20:27;;;;;;;4.38;3.58;;;;;;;10.28;60.30;94738.03;6183140;23;20160;-86
2024/03/05 14:22:55;;;;;;;5.13;3.60;;;;;;;10.19;60.09;94726.16;6159062;23;20016;-86
2024/03/05 14:25:21;;;;;;;4.85;3.50;;;;;;;10.56;59.37;94735.47;6159024;23;20009;-87
2024/03/05 14:37:58;;;;;;;4.63;3.38;;;;;;;10.08;60.46;94732.66;6244145;23;20035;-86
2024/03/05 14:40:24;;;;;;;3.75;2.90;;;;;;;10.36;59.61;94739.72;6218100;23;20004;-87
2024/03/05 14:42:53;;;;;;;4.85;2.90;;;;;;;10.25;58.91;94737.59;6217572;23;20094;-86
2024/03/05 14:45:19;;;;;;;4.63;3.20;;;;;;;10.34;59.64;94741.72;6193419;23;20061;-86
2024/03/05 14:47:48;;;;;;;5.22;3.55;;;;;;;10.28;60.02;94737.22;6211788;22;20055;-87
2024/03/05 14:50:25;;;;;;;;;;;;;;;;;;;;;
2024/03/05 15:08:12;;;;;;;5.93;4.40;;;;;;;9.14;62.75;94719.69;6213744;23;20025;-87
2024/03/05 15:10:38;;;;;;;6.82;4.50;;;;;;;9.37;61.91;94722.16;6163012;23;20015;-86
2024/03/05 15:13:03;;;;;;;6.57;3.88;;;;;;;9.42;61.67;94729.38;6162872;23;20039;-86
2024/03/05 15:15:31;;;;;;;6.90;4.45;;;;;;;9.37;61.52;94735.13;6163040;23;20038;-86
2024/03/05 15:17:57;;;;;;;5.97;4.28;;;;;;;9.23;61.62;94715.16;6138494;23;20012;-87
2024/03/05 15:22:59;;;;;;;7.03;4.22;;;;;;;9.26;62.35;94726.00;6212844;23;20028;-86
2024/03/05 15:25:24;;;;;;;5.90;4.45;;;;;;;9.19;62.61;94722.50;6163534;23;20063;-87
2024/03/05 15:27:53;;;;;;;5.22;3.88;;;;;;;9.32;61.62;94727.06;6187723;23;19996;-86
2024/03/05 15:30:19;;;;;;;5.72;3.90;;;;;;;9.28;61.79;94718.84;6163420;23;20020;-87
2024/03/05 15:32:47;;;;;;;5.93;4.28;;;;;;;9.18;62.72;94731.28;6187575;23;20004;-86
2024/03/05 15:35:16;;;;;;;5.55;3.85;;;;;;;8.89;63.25;94717.34;6187299;23;20018;-86
2024/03/05 15:37:43;;;;;;;5.82;4.43;;;;;;;8.96;62.68;94705.25;6187552;23;20083;-86
2024/03/05 15:40:19;;;;;;;6.57;4.57;;;;;;;8.86;63.22;94707.34;6187031;23;20004;-86
2024/03/05 15:42:53;;;;;;;4.88;3.95;;;;;;;8.89;62.48;94719.13;6187524;23;20144;-86
2024/03/05 15:53:24;;;;;;;5.03;3.25;;;;;;;9.14;62.00;94719.69;6245688;22;20030;-87
2024/03/05 16:00:53;;;;;;;5.28;3.90;;;;;;;9.25;62.00;94703.63;6243202;22;20051;-87
2024/03/05 16:03:18;;;;;;;5.43;3.88;;;;;;;9.31;61.59;94707.28;6192799;23;20094;-86
2024/03/05 16:05:45;;;;;;;5.13;4.00;;;;;;;9.20;62.04;94717.16;6192369;23;20027;-86
2024/03/05 16:08:13;;;;;;;5.55;4.10;;;;;;;9.16;62.32;94707.31;6192373;23;20023;-87
2024/03/05 16:10:42;;;;;;;7.18;4.30;;;;;;;9.30;62.50;94732.44;6192691;23;20008;-87
2024/03/05 16:13:08;;;;;;;6.18;4.40;;;;;;;9.35;61.45;94719.72;6193564;23;20015;-87
2024/03/05 16:20:34;;;;;;;6.45;4.20;;;;;;;9.41;62.39;94725.19;6243424;22;20253;-86
2024/03/05 16:23:00;;;;;;;6.45;4.82;;;;;;;9.42;62.38;94729.38;6167985;23;20016;-86
2024/03/05 16:25:28;;;;;;;6.90;4.97;;;;;;;9.56;61.86;94747.53;6192106;23;20050;-86
2024/03/05 16:27:57;;;;;;;7.32;4.40;;;;;;;9.42;62.71;94737.94;6218299;23;20000;-87
2024/03/05 16:30:27;;;;;;;7.43;5.18;;;;;;;9.59;62.07;94728.16;6192837;23;20020;-87
2024/03/05 16:32:54;;;;;;;7.28;4.38;;;;;;;9.56;61.76;94744.13;6218680;23;20000;-86
2024/03/05 16:37:55;;;;;;;5.97;4.82;;;;;;;9.34;61.58;94741.47;6244013;22;20012;-87
2024/03/05 16:40:22;;;;;;;7.65;6.85;;;;;;;9.76;60.45;94749.53;6162497;23;20031;-87
2024/03/05 16:42:55;;;;;;;6.88;6.18;;;;;;;9.50;61.30;94750.03;6212677;23;20017;-87
2024/03/05 16:45:25;;;;;;;10.35;8.50;;;;;;;9.56;61.37;94749.31;6187221;23;20036;-86
2024/03/05 16:47:55;;;;;;;9.48;7.47;;;;;;;9.49;61.81;94738.03;6212764;23;20005;-86
2024/03/05 16:50:22;;;;;;;7.40;5.70;;;;;;;9.68;60.91;94754.84;6212601;23;20009;-86
2024/03/05 16:52:53;;;;;;;7.50;5.57;;;;;;;9.54;61.46;94759.09;6212413;23;20011;-85
2024/03/05 17:03:05;;;;;;;7.30;5.28;;;;;;;9.45;60.24;94757.56;6216517;23;20021;-87
2024/03/05 17:05:31;;;;;;;6.53;4.00;;;;;;;9.17;60.38;94753.03;6217576;23;20074;-86
2024/03/05 17:08:00;;;;;;;7.65;4.90;;;;;;;9.33;60.82;94763.22;6217262;23;20016;-87
2024/03/05 17:10:27;;;;;;;9.60;6.80;;;;;;;9.38;61.07;94763.47;6217549;23;20066;-87
2024/03/05 17:12:55;;;;;;;7.57;6.55;;;;;;;9.32;60.48;94751.22;6192517;23;20042;-86
2024/03/05 17:15:20;;;;;;;5.75;4.18;;;;;;;9.37;59.58;94764.47;6181482;23;20032;-87
2024/03/05 17:17:49;;;;;;;5.63;4.80;;;;;;;9.29;60.43;94766.34;6157684;23;20009;-87
2024/03/05 17:20:19;;;;;;;4.18;3.55;;;;;;;9.10;59.49;94763.34;6133974;23;20103;-87
2024/03/05 17:22:51;;;;;;;6.43;3.47;;;;;;;9.29;58.88;94777.56;6133333;23;20013;-87
2024/03/05 17:25:18;;;;;;;15.77;13.52;;;;;;;9.23;59.54;94775.66;6157653;23;20009;-87
2024/03/05 17:30:16;;;;;;;6.25;4.72;;;;;;;9.25;60.02;94773.69;6225485;22;20055;-87
2024/03/05 17:32:45;;;;;;;4.57;3.25;;;;;;;9.12;60.25;94774.34;6192010;23;20039;-86
2024/03/05 17:35:12;;;;;;;4.50;2.80;;;;;;;9.06;59.92;94771.63;6216967;23;20038;-86
2024/03/05 17:37:42;;;;;;;5.18;3.60;;;;;;;9.25;59.36;94778.06;6218893;23;20000;-86
2024/03/05 17:40:12;;;;;;;14.27;11.05;;;;;;;9.19;59.73;94780.41;6218774;23;20004;-86
2024/03/05 17:42:38;;;;;;;19.38;13.00;;;;;;;9.09;60.53;94779.88;6218628;23;20007;-86
2024/03/05 17:45:05;;;;;;;22.25;15.82;;;;;;;9.03;61.14;94790.16;6169249;23;20071;-86
2024/03/05 17:47:33;;;;;;;19.33;13.75;;;;;;;9.10;60.76;94780.66;6193755;23;20046;-87
2024/03/05 17:52:26;;;;;;;13.02;8.90;;;;;;;9.32;60.33;94795.34;6214234;22;20025;-86
2024/03/05 17:54:54;;;;;;;8.15;6.18;;;;;;;9.47;58.77;94791.94;6188399;23;20059;-87
2024/03/05 17:57:20;;;;;;;4.70;3.20;;;;;;;9.08;59.92;94798.19;6163901;23;20056;-86
2024/03/05 17:59:46;;;;;;;4.13;3.45;;;;;;;9.03;60.31;94782.38;6188958;23;20009;-86
2024/03/05 18:07:12;;;;;;;3.05;2.10;;;;;;;8.67;59.58;94788.25;6229275;23;20024;-87
2024/03/05 18:09:41;;;;;;;3.88;2.60;;;;;;;8.70;60.43;94803.44;6193768;23;20016;-86
2024/03/05 18:22:18;;;;;;;6.15;3.67;;;;;;;9.03;59.53;94811.72;6244856;23;20020;-87
2024/03/05 18:41:41;;;;;;;3.83;2.30;;;;;;;9.07;60.06;94817.34;6183264;23;20025;-86
2024/03/05 18:44:07;;;;;;;4.03;1.98;;;;;;;9.10;58.95;94806.59;6158270;23;20107;-87
2024/03/05 18:46:32;;;;;;;2.40;1.90;;;;;;;9.02;58.96;94806.69;6158703;23;20096;-87
2024/03/05 18:48:58;;;;;;;3.28;2.00;;;;;;;9.19;57.90;94819.34;6133580;23;20005;-85
2024/03/05 18:51:24;;;;;;;3.15;1.90;;;;;;;9.14;57.99;94810.47;6157577;23;20013;-86
2024/03/05 18:58:50;;;;;;;4.68;3.45;;;;;;;9.08;59.71;94808.56;6200845;23;20031;-87
2024/03/05 19:06:17;;;;;;;6.47;3.95;;;;;;;9.27;59.17;94808.06;6220089;22;20246;-87
2024/03/05 19:08:43;;;;;;;3.15;2.85;;;;;;;9.27;58.59;94810.66;6218032;23;20035;-87
2024/03/05 19:28:56;;;;;;;3.88;2.65;;;;;;;8.95;59.98;94815.19;6244452;22;20012;-87
2024/03/05 19:31:24;;;;;;;3.50;2.65;;;;;;;8.90;59.89;94809.72;6193236;23;20008;-87
2024/03/05 19:33:52;;;;;;;7.28;3.88;;;;;;;8.80;61.34;94814.38;6193012;23;20012;-86
2024/03/05 19:36:19;;;;;;;3.00;2.22;;;;;;;8.45;61.53;94813.19;6193339;23;20011;-86
2024/03/05 19:46:20;;;;;;;3.78;2.70;;;;;;;8.60;61.13;94801.91;6243409;22;20043;-87
2024/03/05 19:48:46;;;;;;;4.78;2.40;;;;;;;8.82;60.69;94802.03;6243021;23;20104;-87
2024/03/05 19:51:13;;;;;;;4.40;2.60;;;;;;;8.84;60.56;94787.09;6192658;23;20016;-87
2024/03/05 19:53:39;;;;;;;2.90;2.40;;;;;;;8.92;60.18;94799.97;6168628;23;20016;-87
2024/03/05 19:56:05;;;;;;;3.95;2.40;;;;;;;8.99;59.88;94794.91;6168066;23;20004;-87
2024/03/05 20:08:22;;;;;;;5.55;2.40;;;;;;;8.92;60.40;94791.41;6243769;22;20024;-87
2024/03/05 20:10:47;;;;;;;3.92;2.10;;;;;;;8.82;60.21;94778.69;6168037;23;20008;-86
2024/03/05 20:13:13;;;;;;;3.83;1.98;;;;;;;8.83;60.37;94774.31;6217691;23;20008;-86
2024/03/05 20:15:38;;;;;;;3.00;1.60;;;;;;;8.93;59.54;94787.81;6217758;23;20063;-87
2024/03/05 20:18:04;;;;;;;2.85;1.90;;;;;;;8.88;59.89;94765.00;6192426;23;20014;-87
2024/03/05 20:31:48;;;;;;;4.45;1.90;;;;;;;8.89;59.88;94773.59;6229406;22;20043;-87
2024/03/05 20:34:15;;;;;;;3.72;1.80;;;;;;;8.69;60.66;94768.13;6169008;23;20020;-87
2024/03/05 20:36:40;;;;;;;3.30;1.98;;;;;;;8.32;61.24;94772.28;6157365;23;20048;-87
2024/03/05 20:39:07;;;;;;;4.43;3.10;;;;;;;8.76;60.43;94771.63;6133507;23;20012;-87
2024/03/05 21:10:11;;;;;;;9.45;6.18;;;;;;;8.66;62.74;94805.56;6207876;22;20055;-86
2024/03/05 21:12:39;;;;;;;8.65;5.60;;;;;;;8.76;62.28;94811.31;6134734;23;20016;-85
2024/03/05 21:15:12;;;;;;;7.03;5.65;;;;;;;8.68;63.35;94829.56;6159328;23;20066;-86
2024/03/05 21:17:38;;;;;;;7.35;5.35;;;;;;;8.68;62.89;94833.91;6135889;23;20005;-86
2024/03/05 21:20:08;;;;;;;10.02;5.55;;;;;;;8.74;62.57;94834.03;6159229;23;20050;-85
2024/03/05 21:30:19;;;;;;;7.18;4.50;;;;;;;8.70;61.68;94853.50;6189505;23;20017;-87
2024/03/05 21:57:47;;;;;;;7.57;4.88;;;;;;;8.13;62.13;94859.03;6226163;22;20099;-86
2024/03/05 22:00:14;;;;;;;8.63;5.32;;;;;;;8.15;62.65;94857.91;6158467;23;20021;-87
2024/03/05 22:02:42;;;;;;;8.65;6.40;;;;;;;8.03;62.57;94862.69;6159425;23;20017;-87
2024/03/05 22:05:08;;;;;;;8.95;6.45;;;;;;;8.12;62.24;94873.78;6134523;23;20033;-87
2024/03/05 22:07:37;;;;;;;10.57;7.05;;;;;;;8.08;62.57;94864.75;6158671;23;20005;-86
2024/03/05 22:10:05;;;;;;;8.50;7.00;;;;;;;8.26;61.95;94876.63;6134752;23;20017;-87
2024/03/05 22:22:40;;;;;;;5.53;4.28;;;;;;;8.16;62.24;94864.69;6137296;23;20028;-86
2024/03/05 22:25:07;;;;;;;5.32;3.90;;;;;;;8.01;62.51;94869.00;6134433;23;20013;-87
2024/03/05 22:29:58;;;;;;;5.50;4.00;;;;;;;7.91;62.30;94855.47;6213925;22;20060;-86
2024/03/05 22:32:23;;;;;;;6.05;4.63;;;;;;;8.04;62.19;94855.72;6188504;23;20001;-87
2024/03/05 22:34:52;;;;;;;5.93;3.70;;;;;;;8.03;61.82;94861.84;6188336;23;20091;-86
2024/03/05 22:37:18;;;;;;;6.68;4.40;;;;;;;8.09;61.90;94865.56;6188725;23;20083;-87
2024/03/05 22:39:47;;;;;;;5.35;3.40;;;;;;;8.19;60.98;94879.91;6163985;23;20008;-86
2024/03/05 22:47:15;;;;;;;4.38;3.17;;;;;;;7.41;62.57;94860.84;6218361;23;20039;-86
2024/03/05 22:49:40;;;;;;;4.18;3.10;;;;;;;7.41;63.17;94878.94;6219000;23;20012;-86
2024/03/05 22:52:06;;;;;;;6.10;3.20;;;;;;;7.53;62.88;94878.59;6192831;23;20011;-87
2024/03/05 22:54:32;;;;;;;3.35;3.05;;;;;;;7.59;63.09;94880.50;6218792;23;20044;-87
2024/03/05 23:10:06;;;;;;;4.93;3.22;;;;;;;7.52;62.32;94879.56;6213619;22;20024;-86
2024/03/05 23:12:32;;;;;;;5.55;3.40;;;;;;;7.49;62.46;94878.13;6134144;23;20025;-87
2024/03/05 23:32:54;;;;;;;2.83;2.40;;;;;;;7.18;61.40;94880.63;6188472;23;20020;-87
2024/03/05 23:37:46;;;;;;;4.00;2.80;;;;;;;7.08;62.44;94885.16;6188045;23;20024;-87
2024/03/05 23:40:11;;;;;;;3.10;2.80;;;;;;;7.12;62.09;94883.84;6163205;23;20021;-87
2024/03/05 23:42:38;;;;;;;4.03;3.05;;;;;;;7.08;62.79;94891.13;6213547;23;20013;-87
2024/03/05 23:45:04;;;;;;;3.38;2.60;;;;;;;7.05;62.46;94879.34;6187829;23;20083;-87
2024/03/05 23:47:33;;;;;;;2.55;2.35;;;;;;;7.02;62.02;94884.81;6163152;23;20031;-87
